createdAt,value
2022-11-28T10:07:55.190Z,64.70
2022-11-28T10:11:05.472Z,60.90
2022-11-28T10:14:51.461Z,62.45
2022-11-28T10:18:10.694Z,67.43
2022-11-28T10:21:33.637Z,66.37
2022-11-28T10:24:54.135Z,60.90
2022-11-28T10:27:59.133Z,68.63
2022-11-28T10:31:33.040Z,63.97
2022-11-28T10:35:09.307Z,69.97
2022-11-28T10:38:16.202Z,61.20
2022-11-28T10:42:12.255Z,72.72
2022-11-28T10:45:49.045Z,61.15
2022-11-28T10:49:01.589Z,66.15
2022-11-28T10:52:21.351Z,59.20
2022-11-28T10:55:27.096Z,62.27
2022-11-28T10:59:04.147Z,67.05
2022-11-28T11:02:30.153Z,68.38
2022-11-28T11:05:36.318Z,69.60
2022-11-28T11:08:41.158Z,61.38
2022-11-28T11:11:57.779Z,65.03
2022-11-28T11:15:19.607Z,60.90
2022-11-28T11:18:28.576Z,63.35
2022-11-28T11:21:34.554Z,60.28
2022-11-28T11:24:37.534Z,52.88
2022-11-28T11:27:57.455Z,57.90
2022-11-28T11:31:03.258Z,60.75
2022-11-28T11:34:15.649Z,72.13
2022-11-28T11:37:39.117Z,67.40
2022-11-28T11:40:42.162Z,55.22
2022-11-28T11:43:45.124Z,59.50
2022-11-28T11:47:05.416Z,67.40
2022-11-28T11:50:21.121Z,63.03
2022-11-28T11:53:24.138Z,62.33
2022-11-28T11:56:30.759Z,58.30
2022-11-28T11:59:47.689Z,56.23
2022-11-28T12:02:58.602Z,54.80
2022-11-28T12:06:14.525Z,51.90
2022-11-28T12:09:34.530Z,59.28
2022-11-28T12:12:38.316Z,53.17
2022-11-28T12:16:11.422Z,58.47
2022-11-28T12:19:23.349Z,53.45
2022-11-28T12:23:09.974Z,50.38
2022-11-28T12:26:40.073Z,44.17
2022-11-28T12:30:12.792Z,46.17
2022-11-28T12:33:24.722Z,46.40
2022-11-28T12:36:41.701Z,51.22
2022-11-28T12:39:56.030Z,54.80
2022-11-28T12:43:04.842Z,57.03
2022-11-28T12:46:27.866Z,56.83
2022-11-28T12:49:43.659Z,57.37
2022-11-28T12:53:02.437Z,59.97
2022-11-28T12:56:24.254Z,55.38
2022-11-28T12:59:56.567Z,59.78
2022-11-28T13:03:38.251Z,53.42
2022-11-28T13:07:11.650Z,59.03
2022-11-28T13:10:37.747Z,62.95
2022-11-28T13:14:01.925Z,57.75
2022-11-28T13:17:35.989Z,52.08
2022-11-28T13:21:17.861Z,59.17
2022-11-28T13:24:32.083Z,59.30
2022-11-28T13:27:49.961Z,54.65
2022-11-28T13:31:11.330Z,63.85
2022-11-28T13:34:17.653Z,64.05
2022-11-28T13:41:28.510Z,63.80
2022-11-28T13:44:59.451Z,71.15
2022-11-28T13:52:21.800Z,71.43
2022-11-28T13:55:40.838Z,74.20
2022-11-28T13:58:46.728Z,69.27
2022-11-28T14:02:00.050Z,66.63
2022-11-28T14:05:04.627Z,65.97
2022-11-28T14:08:08.169Z,64.13
2022-11-28T14:11:27.714Z,64.47
2022-11-28T14:15:04.045Z,60.73
2022-11-28T14:18:55.025Z,58.25
2022-11-28T14:21:57.535Z,58.20
2022-11-28T14:25:13.959Z,47.22
2022-11-28T14:28:37.047Z,37.78
2022-11-28T14:31:40.532Z,38.67
2022-11-28T14:34:49.106Z,38.53
2022-11-28T14:37:55.620Z,42.13
2022-11-28T14:41:01.643Z,47.38
2022-11-28T14:45:08.388Z,41.80
2022-11-28T14:48:19.603Z,44.43
2022-11-28T14:51:45.834Z,44.47
2022-11-28T14:54:51.118Z,50.55
2022-11-28T14:57:53.892Z,43.63
2022-11-28T15:01:00.252Z,47.15
2022-11-28T15:04:08.683Z,44.30
2022-11-28T15:07:44.002Z,47.53
2022-11-28T15:10:55.207Z,48.63
2022-11-28T15:14:22.595Z,49.60
2022-11-28T15:17:32.654Z,50.45
2022-11-28T15:20:48.728Z,52.07
2022-11-28T15:23:53.040Z,51.65
2022-11-28T15:27:18.093Z,58.05
2022-11-28T15:30:26.575Z,54.20
2022-11-28T15:33:30.633Z,47.25
2022-11-28T15:36:33.635Z,51.10
2022-11-28T15:39:40.127Z,49.50
2022-11-28T15:42:48.023Z,51.85
2022-11-28T15:45:54.341Z,53.65
2022-11-28T15:48:57.943Z,57.65
2022-11-28T15:52:03.942Z,49.13
2022-11-28T15:55:20.511Z,53.28
2022-11-28T15:58:31.745Z,52.88
2022-11-28T16:01:35.705Z,62.58
2022-11-28T16:04:40.264Z,52.67
2022-11-28T16:07:45.024Z,59.50
2022-11-28T16:10:48.503Z,67.90
2022-11-28T16:13:53.569Z,60.83
2022-11-28T16:17:02.096Z,64.53
2022-11-28T16:20:05.885Z,55.38
2022-11-28T16:23:30.613Z,54.97
2022-11-28T16:26:35.835Z,55.35
2022-11-28T16:29:45.589Z,57.35
2022-11-28T16:32:50.169Z,65.10
2022-11-28T16:35:53.363Z,77.72
2022-11-28T16:39:11.879Z,81.03
2022-11-28T16:42:17.500Z,88.35
2022-11-28T16:45:22.641Z,92.60
2022-11-28T16:48:35.971Z,93.78
2022-11-28T16:51:41.360Z,98.57
2022-11-28T16:54:44.585Z,90.43
2022-11-28T16:57:47.727Z,78.85
2022-11-28T17:00:59.469Z,77.05
2022-11-28T17:04:03.101Z,76.82
2022-11-28T17:07:09.618Z,83.00
2022-11-28T17:10:13.537Z,78.97
2022-11-28T17:13:17.566Z,74.93
2022-11-28T17:16:22.798Z,78.63
2022-11-28T17:19:25.821Z,67.63
2022-11-28T17:22:40.914Z,71.97
2022-11-28T17:25:44.237Z,68.97
2022-11-28T17:28:47.255Z,70.90
2022-11-28T17:31:50.478Z,67.05
2022-11-28T17:34:53.405Z,68.88
2022-11-28T17:37:56.335Z,67.78
2022-11-28T17:41:02.075Z,60.80
2022-11-28T17:44:05.588Z,65.10
2022-11-28T17:47:08.446Z,61.58
2022-11-28T17:50:12.039Z,71.60
2022-11-28T17:53:18.787Z,76.97
2022-11-28T17:56:22.044Z,63.77
2022-11-28T17:59:27.090Z,69.00
2022-11-28T18:02:30.080Z,63.55
2022-11-28T18:05:37.794Z,63.50
2022-11-28T18:08:40.968Z,66.18
2022-11-28T18:11:46.462Z,69.50
2022-11-28T18:14:49.701Z,62.90
2022-11-28T18:17:54.747Z,59.63
2022-11-28T18:20:58.785Z,53.58
2022-11-28T18:24:02.372Z,55.15
2022-11-28T18:27:06.685Z,57.50
2022-11-28T18:30:10.571Z,60.25
2022-11-28T18:33:14.927Z,61.13
2022-11-28T18:36:21.234Z,57.10
2022-11-28T18:39:24.646Z,54.90
2022-11-28T18:42:27.673Z,63.23
2022-11-28T18:45:31.296Z,63.08
2022-11-28T18:48:37.155Z,61.35
2022-11-28T18:51:40.716Z,70.05
2022-11-28T18:54:44.984Z,57.00
2022-11-28T18:57:48.393Z,61.53
2022-11-28T19:00:51.213Z,78.68
2022-11-28T19:03:57.238Z,68.90
2022-11-28T19:07:01.753Z,55.03
2022-11-28T19:10:06.915Z,54.60
2022-11-28T19:13:10.202Z,57.03
2022-11-28T19:16:20.187Z,60.53
2022-11-28T19:19:24.129Z,62.53
2022-11-28T19:22:27.496Z,60.85
2022-11-28T19:25:31.887Z,70.25
2022-11-28T19:28:36.866Z,67.30
2022-11-28T19:31:42.042Z,57.97
2022-11-28T19:34:45.648Z,58.42
2022-11-28T19:37:49.508Z,59.40
2022-11-28T19:40:52.719Z,66.03
2022-11-28T19:43:56.175Z,55.63
2022-11-28T19:46:59.451Z,66.53
2022-11-28T19:50:04.769Z,73.57
2022-11-28T19:53:08.292Z,62.22
2022-11-28T19:56:15.383Z,71.88
2022-11-28T19:59:20.060Z,79.63
2022-11-28T20:02:23.681Z,63.30
2022-11-28T20:05:27.066Z,85.72
2022-11-28T20:08:30.398Z,78.22
2022-11-28T20:11:35.555Z,88.50
2022-11-28T20:14:39.827Z,74.53
2022-11-28T20:17:43.171Z,71.88
2022-11-28T20:20:46.291Z,73.70
2022-11-28T20:23:53.614Z,85.80
2022-11-28T20:26:57.542Z,87.70
2022-11-28T20:30:03.223Z,78.33
2022-11-28T20:33:06.644Z,86.88
2022-11-28T20:36:13.785Z,93.25
2022-11-28T20:39:16.956Z,82.63
2022-11-28T20:42:20.545Z,107.70
2022-11-28T20:45:23.744Z,56.13
2022-11-28T20:48:28.233Z,98.40
2022-11-28T20:51:33.438Z,89.47
2022-11-28T20:54:36.585Z,71.60
2022-11-28T20:57:40.125Z,84.63
2022-11-28T21:00:43.067Z,67.27
2022-11-28T21:03:46.735Z,64.72
2022-11-28T21:06:50.206Z,77.50
2022-11-28T21:10:00.104Z,65.18
2022-11-28T21:13:03.196Z,70.95
2022-11-28T21:16:08.551Z,68.87
2022-11-28T21:19:13.056Z,67.90
2022-11-28T21:22:16.147Z,71.28
2022-11-28T21:25:19.098Z,71.53
2022-11-28T21:28:22.040Z,71.13
2022-11-28T21:31:28.355Z,70.47
2022-11-28T21:34:31.570Z,74.85
2022-11-28T21:37:34.480Z,68.18
2022-11-28T21:40:37.385Z,66.03
2022-11-28T21:43:40.214Z,71.70
2022-11-28T21:46:43.379Z,68.77
2022-11-28T21:49:47.590Z,55.83
2022-11-28T21:52:50.541Z,64.50
2022-11-28T21:55:55.387Z,66.55
2022-11-28T21:58:58.590Z,62.47
2022-11-28T22:02:01.599Z,58.83
2022-11-28T22:05:05.057Z,66.72
2022-11-28T22:08:08.366Z,56.88
2022-11-28T22:11:13.479Z,63.13
2022-11-28T22:14:16.650Z,61.00
2022-11-28T22:17:19.460Z,58.40
2022-11-28T22:20:22.289Z,60.70
2022-11-28T22:23:25.228Z,70.40
2022-11-28T22:26:28.645Z,55.72
2022-11-28T22:29:31.719Z,56.65
2022-11-28T22:32:34.617Z,58.13
2022-11-28T22:35:37.473Z,57.67
2022-11-28T22:38:41.900Z,54.58
2022-11-28T22:41:44.931Z,55.80
2022-11-28T22:44:48.658Z,57.17
2022-11-28T22:47:51.625Z,54.43
2022-11-28T22:50:54.519Z,59.55
2022-11-28T22:53:59.509Z,61.85
2022-11-28T22:57:03.431Z,61.75
2022-11-28T23:00:09.401Z,60.83
2022-11-28T23:03:12.525Z,52.90
2022-11-28T23:06:19.617Z,56.90
2022-11-28T23:09:22.502Z,55.95
2022-11-28T23:12:26.114Z,60.55
2022-11-28T23:15:29.133Z,57.05
2022-11-28T23:18:33.204Z,55.43
2022-11-28T23:21:38.215Z,71.75
2022-11-28T23:24:41.115Z,146.52
2022-11-28T23:27:44.106Z,73.93
2022-11-28T23:30:47.132Z,69.25
2022-11-28T23:33:50.580Z,71.40
2022-11-28T23:36:54.154Z,67.95
2022-11-28T23:39:57.055Z,75.25
2022-11-28T23:43:00.052Z,64.35
2022-11-28T23:46:03.498Z,61.63
2022-11-28T23:49:07.294Z,67.03
2022-11-28T23:52:10.295Z,64.25
2022-11-28T23:55:13.211Z,64.45
2022-11-28T23:58:16.248Z,72.07
